Logo AVAMET
Benvolgut visitant, si us plau, ingressa Recuperar contrasenya

Alzira la Casella

Dades diàries. Acumulats / Últims 30 dies disponibles

Data Temperatura (°C) Humitat rel. (%) Pressió rel. (hPa) Vent (km/h) Precipitació
Mínima Mitjana Màxima Amplitud
tèrmica
Mínima Mitjana Màxima Mínima Mitjana Màxima Predom. Mitjana Ràfega
màxima
Total
(mm)
Índex-n
Mínima Mitjana Màxima Mínima Mitjana Màxima n
0 a 1
P0 max
mm 5'
Dades mensuals acumulades fins l'últim dia disponible
12/2019 8,3 9,8 10,8 11,8 13,1 14,5 18,6 10,3 46 90 97 1.005 1.015 1.026   4,3 70,8 409,8
Dades anuals acumulades fins l'últim dia disponible
2019 2,9 15,6 25,5 20,9 13,1 26,9 41,8 38,9 12 70 98 994 1.016 1.028   3,7 70,8 1.142,6
Últims 30 dies disponibles
06-12-2019 10,2     11,9     14,1 3,9 89 95 97 1.023 1.024 1.026 ESE 0,8 14,5 2,8 0,42 0,40
05-12-2019 9,9     11,4     13,8 3,9 92 95 97 1.010 1.017 1.023 WNW 1,6 16,1 78,0 0,39 9,70
04-12-2019 10,2     11,4     13,2 3,0 79 92 96 1.005 1.007 1.011 WNW 6,9 70,8 34,4 0,72 2,00
03-12-2019 8,3     10,6     13,1 4,8 78 91 96 1.012 1.016 1.018 SE 6,8 40,2 87,2 0,58 2,70
02-12-2019 10,8     12,1     14,2 3,4 83 92 96 1.012 1.015 1.018 WNW 6,3 40,2 207,4 0,48 5,10
01-12-2019 9,2     13,4     18,6 9,4 46 72 90 1.011 1.013 1.015 ESE 3,4 25,7 0,0
30-11-2019 10,4     14,6     23,1 12,7 49 79 92 1.015 1.019 1.022 SE 2,5 14,5 0,0
29-11-2019 12,5     15,9     21,1 8,6 59 72 87 1.017 1.020 1.022 WNW 2,7 22,5 0,0
28-11-2019 11,3     14,2     18,3 7,0 60 70 78 1.015 1.017 1.019 WNW 3,2 24,1 0,0
27-11-2019 10,4     16,9     20,8 10,4 43 62 82 1.010 1.012 1.015 WNW 5,5 37,0 0,0
26-11-2019 11,1     15,7     21,1 10,0 53 76 93 1.010 1.013 1.016 WNW 2,9 27,4 0,0
25-11-2019 8,4     14,2     19,6 11,2 60 76 91 1.014 1.015 1.017 WNW 3,2 24,1 0,0
24-11-2019 6,2     11,5     17,2 11,0 48 65 83 1.009 1.013 1.015 WNW 2,9 24,1 0,0
23-11-2019 8,3     12,9     16,1 7,8 47 64 81 994 1.000 1.009 WNW 5,5 29,0 0,0
22-11-2019 8,0     13,4     18,3 10,3 61 81 92 995 1.003 1.009 ESE 2,3 25,7 2,0
21-11-2019 6,1     10,7     15,5 9,4 67 84 94 1.009 1.010 1.012 ESE 1,4 9,7 0,2
20-11-2019 4,7     10,1     16,8 12,1 44 73 92 1.010 1.013 1.017 ESE 1,9 16,1 1,4
19-11-2019 2,9     8,2     15,8 12,9 43 75 87 1.015 1.017 1.019 ESE 2,7 16,1 0,0
18-11-2019 5,4     9,9     16,3 10,9 50 83 93 1.008 1.012 1.018 ESE 1,6 14,5 1,0
17-11-2019 2,9     10,1     16,3 13,4 44 68 92 1.011 1.014 1.017 WNW 3,9 29,0 5,2
16-11-2019 3,4     7,9     16,0 12,6 42 72 88 1.008 1.012 1.017 ESE 2,4 12,9 0,0
15-11-2019 4,8     10,0     15,1 10,3 46 68 88 1.002 1.004 1.008 WNW 3,7 33,8 0,0
14-11-2019 9,2     12,9     16,2 7,0 53 66 85 1.001 1.004 1.010 WNW 4,0 35,4 0,0
13-11-2019 10,9     13,7     19,8 8,9 54 79 92 1.006 1.009 1.012 WNW 2,7 25,7 7,4
12-11-2019 6,7     11,7     19,4 12,7 36 61 80 1.010 1.013 1.015 ESE 2,6 17,7 0,0
11-11-2019 4,2     10,9     17,6 13,4 43 65 81 1.012 1.014 1.016 ESE 3,4 27,4 0,0
10-11-2019 5,9     12,1     16,8 10,9 41 62 81 1.011 1.014 1.015 WNW 3,7 35,4 0,0
09-11-2019 6,1     12,6     18,2 12,1 36 57 79 1.014 1.018 1.021 WNW 3,7 25,7 0,0
08-11-2019 7,7     12,0     16,5 8,8 41 56 73 1.011 1.014 1.018 WNW 4,8 30,6 0,0
07-11-2019 8,6     14,4     21,2 12,6 33 62 84 1.008 1.011 1.015 WNW 3,2 27,4 0,0
Últims 13 mesos disponibles
11/2019 2,9 8,7 18,6 13,6 15,1 19,1 26,9 24,0 56 68 84 1.000 1.012 1.020 WNW 3,7 38,6 17,2
10/2019 8,5 14,2 18,8 19,0 15,2 25,6 33,7 25,2 53 75 92 1.009 1.017 1.023 ESE 2,4 27,4 67,2
09/2019 14,1 18,6 21,1 23,1 21,2 28,3 35,6 21,5 44 76 94 1.011 1.018 1.025 E 3,4 57,9 226,8
08/2019 16,8 20,9 24,8 26,5 27,5 33,0 41,8 25,0 41 70 84 1.011 1.016 1.021 E 3,7 41,8 19,2
07/2019 18,8 21,0 25,5 26,7 27,2 32,9 39,7 20,9 46 67 79 1.007 1.014 1.022 E 4,2 45,1 3,8
06/2019 11,4 16,1 20,8 22,8 22,4 29,7 38,5 27,1 41 63 81 1.009 1.016 1.022 E 4,0 45,1 4,8
05/2019 7,5 12,7 17,3 18,8 19,3 25,4 32,9 25,4 50 66 85 1.006 1.016 1.025 E 4,1 38,6 17,6
04/2019 8,8 11,2 13,2 15,1 13,6 19,7 25,0 16,2 53 76 96 1.000 1.015 1.025 WNW 4,5 59,5 376,2
Tots els anys disponibles
Temperatura (°C)
Humitat relativa (%)
Velocitat del vent i ràfega màxima (km/h)
Direcció del vent (°)
Pressió (hPa)
Precipitació (mm)
Nota sobre les dades: s'avisa a l'usuari de la provisionalitat i no oficialitat d'aquestes dades
Logo AVAMET blanc
Web allotjada a Sollutia
Llicència de Creative CommonsLa web d'AVAMET i els seus continguts estan subjectes a una llicència de
Reconeixement - No Comercial - Compartir igual
Últimes estacions: Aielo de Malferit - Centre (Soci), Faura (Inforatge), Benifairó de les Valls (Inforatge), Xàbia - Les Valls (Soci), Xàbia - Alt de la Granadella (Soci), Villena - Sierra de Salinas (Soci), Sueca - Centre (Inforatge) - - -